sensor_id;sensor_type;location;lat;lon;timestamp;temperature;humidity
32769;DHT22;23049;54.304;8.826;2023-02-28T00:00:38;4.50;99.90
32769;DHT22;23049;54.304;8.826;2023-02-28T00:03:04;4.40;99.90
32769;DHT22;23049;54.304;8.826;2023-02-28T00:05:29;4.40;99.90
32769;DHT22;23049;54.304;8.826;2023-02-28T00:07:55;4.30;99.90
32769;DHT22;23049;54.304;8.826;2023-02-28T00:10:23;4.30;99.90
32769;DHT22;23049;54.304;8.826;2023-02-28T00:12:51;4.30;99.90
32769;DHT22;23049;54.304;8.826;2023-02-28T00:15:17;4.50;99.90
32769;DHT22;23049;54.304;8.826;2023-02-28T00:17:42;4.50;99.90
32769;DHT22;23049;54.304;8.826;2023-02-28T00:20:08;4.40;99.90
32769;DHT22;23049;54.304;8.826;2023-02-28T00:22:36;4.40;99.90
32769;DHT22;23049;54.304;8.826;2023-02-28T00:25:01;4.40;99.90
32769;DHT22;23049;54.304;8.826;2023-02-28T00:27:27;4.30;99.90
32769;DHT22;23049;54.304;8.826;2023-02-28T00:29:52;4.30;99.90
32769;DHT22;23049;54.304;8.826;2023-02-28T00:32:19;4.30;99.90
32769;DHT22;23049;54.304;8.826;2023-02-28T00:34:44;4.20;99.90
32769;DHT22;23049;54.304;8.826;2023-02-28T00:37:10;4.20;99.90
32769;DHT22;23049;54.304;8.826;2023-02-28T00:39:37;4.30;99.90
32769;DHT22;23049;54.304;8.826;2023-02-28T00:42:03;4.40;99.90
32769;DHT22;23049;54.304;8.826;2023-02-28T00:44:29;4.40;99.90
32769;DHT22;23049;54.304;8.826;2023-02-28T00:46:55;4.30;99.90
32769;DHT22;23049;54.304;8.826;2023-02-28T00:49:21;4.30;99.90
32769;DHT22;23049;54.304;8.826;2023-02-28T00:51:47;4.20;99.90
32769;DHT22;23049;54.304;8.826;2023-02-28T00:54:12;4.20;99.90
32769;DHT22;23049;54.304;8.826;2023-02-28T00:56:38;4.20;99.90
32769;DHT22;23049;54.304;8.826;2023-02-28T00:59:04;4.20;99.90
32769;DHT22;23049;54.304;8.826;2023-02-28T01:01:30;4.20;99.90
32769;DHT22;23049;54.304;8.826;2023-02-28T01:03:55;4.20;99.90
32769;DHT22;23049;54.304;8.826;2023-02-28T01:06:21;4.20;99.90
32769;DHT22;23049;54.304;8.826;2023-02-28T01:08:46;4.20;99.90
32769;DHT22;23049;54.304;8.826;2023-02-28T01:11:12;4.20;99.90
32769;DHT22;23049;54.304;8.826;2023-02-28T01:13:38;4.20;99.90
32769;DHT22;23049;54.304;8.826;2023-02-28T01:16:03;4.20;99.90
32769;DHT22;23049;54.304;8.826;2023-02-28T01:18:29;4.30;99.90
32769;DHT22;23049;54.304;8.826;2023-02-28T01:20:55;4.30;99.90
32769;DHT22;23049;54.304;8.826;2023-02-28T01:23:21;4.30;99.90
32769;DHT22;23049;54.304;8.826;2023-02-28T01:25:48;4.30;99.90
32769;DHT22;23049;54.304;8.826;2023-02-28T01:28:14;4.40;99.90
32769;DHT22;23049;54.304;8.826;2023-02-28T01:30:39;4.60;99.90
32769;DHT22;23049;54.304;8.826;2023-02-28T01:33:05;4.80;99.90
32769;DHT22;23049;54.304;8.826;2023-02-28T01:35:34;4.80;99.90
32769;DHT22;23049;54.304;8.826;2023-02-28T01:38:00;4.70;99.90
32769;DHT22;23049;54.304;8.826;2023-02-28T01:40:25;4.50;99.90
32769;DHT22;23049;54.304;8.826;2023-02-28T01:42:51;4.40;99.90
32769;DHT22;23049;54.304;8.826;2023-02-28T01:45:24;4.20;99.90
32769;DHT22;23049;54.304;8.826;2023-02-28T01:47:52;4.20;99.90
32769;DHT22;23049;54.304;8.826;2023-02-28T01:50:20;4.50;99.90
32769;DHT22;23049;54.304;8.826;2023-02-28T01:52:47;4.60;99.90
32769;DHT22;23049;54.304;8.826;2023-02-28T01:55:13;4.60;99.90
32769;DHT22;23049;54.304;8.826;2023-02-28T01:57:41;4.50;99.90
32769;DHT22;23049;54.304;8.826;2023-02-28T02:00:12;4.40;99.90
32769;DHT22;23049;54.304;8.826;2023-02-28T02:02:40;4.30;99.90
32769;DHT22;23049;54.304;8.826;2023-02-28T02:05:08;4.00;99.90
32769;DHT22;23049;54.304;8.826;2023-02-28T02:07:38;3.80;99.90
32769;DHT22;23049;54.304;8.826;2023-02-28T02:12:36;3.60;99.90
32769;DHT22;23049;54.304;8.826;2023-02-28T02:25:12;3.80;99.90
32769;DHT22;23049;54.304;8.826;2023-02-28T02:27:58;3.40;99.90
32769;DHT22;23049;54.304;8.826;2023-02-28T02:35:52;3.00;99.90
32769;DHT22;23049;54.304;8.826;2023-02-28T02:38:33;3.00;99.90
32769;DHT22;23049;54.304;8.826;2023-02-28T02:41:04;3.00;99.90
32769;DHT22;23049;54.304;8.826;2023-02-28T02:43:34;3.00;99.90
32769;DHT22;23049;54.304;8.826;2023-02-28T02:46:04;2.90;99.90
32769;DHT22;23049;54.304;8.826;2023-02-28T02:48:32;3.00;99.90
32769;DHT22;23049;54.304;8.826;2023-02-28T02:51:00;3.00;99.90
32769;DHT22;23049;54.304;8.826;2023-02-28T02:53:28;3.10;99.90
32769;DHT22;23049;54.304;8.826;2023-02-28T02:55:54;3.30;99.90
32769;DHT22;23049;54.304;8.826;2023-02-28T02:58:27;3.70;99.90
32769;DHT22;23049;54.304;8.826;2023-02-28T03:00:55;3.90;99.90
32769;DHT22;23049;54.304;8.826;2023-02-28T03:03:22;4.10;99.90
32769;DHT22;23049;54.304;8.826;2023-02-28T03:05:54;4.30;99.90
32769;DHT22;23049;54.304;8.826;2023-02-28T03:08:20;4.50;99.90
32769;DHT22;23049;54.304;8.826;2023-02-28T03:10:46;4.60;99.90
32769;DHT22;23049;54.304;8.826;2023-02-28T03:15:51;4.80;99.90
32769;DHT22;23049;54.304;8.826;2023-02-28T03:18:24;4.90;99.90
32769;DHT22;23049;54.304;8.826;2023-02-28T03:26:23;5.00;99.90
32769;DHT22;23049;54.304;8.826;2023-02-28T03:31:30;5.00;99.90
32769;DHT22;23049;54.304;8.826;2023-02-28T03:34:01;5.00;99.90
32769;DHT22;23049;54.304;8.826;2023-02-28T03:36:29;5.00;99.90
32769;DHT22;23049;54.304;8.826;2023-02-28T03:41:25;5.00;99.90
32769;DHT22;23049;54.304;8.826;2023-02-28T03:44:03;5.00;99.90
32769;DHT22;23049;54.304;8.826;2023-02-28T03:46:31;5.00;99.90
32769;DHT22;23049;54.304;8.826;2023-02-28T03:49:00;5.00;99.90
32769;DHT22;23049;54.304;8.826;2023-02-28T03:51:27;5.00;99.90
32769;DHT22;23049;54.304;8.826;2023-02-28T03:53:56;5.00;99.90
32769;DHT22;23049;54.304;8.826;2023-02-28T03:56:33;5.00;99.90
32769;DHT22;23049;54.304;8.826;2023-02-28T04:01:27;4.90;99.90
32769;DHT22;23049;54.304;8.826;2023-02-28T04:03:53;4.90;99.90
32769;DHT22;23049;54.304;8.826;2023-02-28T04:06:20;4.90;99.90
32769;DHT22;23049;54.304;8.826;2023-02-28T04:08:46;4.90;99.90
32769;DHT22;23049;54.304;8.826;2023-02-28T04:13:40;4.80;99.90
32769;DHT22;23049;54.304;8.826;2023-02-28T04:16:09;4.80;99.90
32769;DHT22;23049;54.304;8.826;2023-02-28T04:18:40;4.70;99.90
32769;DHT22;23049;54.304;8.826;2023-02-28T04:21:06;4.80;99.90
32769;DHT22;23049;54.304;8.826;2023-02-28T04:23:31;4.70;99.90
32769;DHT22;23049;54.304;8.826;2023-02-28T04:25:57;4.70;99.90
32769;DHT22;23049;54.304;8.826;2023-02-28T04:28:23;4.70;99.90
32769;DHT22;23049;54.304;8.826;2023-02-28T04:30:54;4.70;99.90
32769;DHT22;23049;54.304;8.826;2023-02-28T04:33:19;4.80;99.90
32769;DHT22;23049;54.304;8.826;2023-02-28T04:35:45;4.80;99.90
32769;DHT22;23049;54.304;8.826;2023-02-28T04:38:10;4.90;99.90
32769;DHT22;23049;54.304;8.826;2023-02-28T04:40:36;4.90;99.90
32769;DHT22;23049;54.304;8.826;2023-02-28T04:43:01;4.90;99.90
32769;DHT22;23049;54.304;8.826;2023-02-28T04:45:27;4.90;99.90
32769;DHT22;23049;54.304;8.826;2023-02-28T04:47:55;4.90;99.90
32769;DHT22;23049;54.304;8.826;2023-02-28T04:50:20;4.90;99.90
32769;DHT22;23049;54.304;8.826;2023-02-28T04:52:46;4.90;99.90
32769;DHT22;23049;54.304;8.826;2023-02-28T04:55:11;4.90;99.90
32769;DHT22;23049;54.304;8.826;2023-02-28T04:57:37;4.90;99.90
32769;DHT22;23049;54.304;8.826;2023-02-28T05:00:03;4.90;99.90
32769;DHT22;23049;54.304;8.826;2023-02-28T05:02:34;4.90;99.90
32769;DHT22;23049;54.304;8.826;2023-02-28T05:05:00;4.90;99.90
32769;DHT22;23049;54.304;8.826;2023-02-28T05:07:26;4.90;99.90
32769;DHT22;23049;54.304;8.826;2023-02-28T05:09:51;4.80;99.90
32769;DHT22;23049;54.304;8.826;2023-02-28T05:12:17;4.70;99.90
32769;DHT22;23049;54.304;8.826;2023-02-28T05:14:42;4.70;99.90
32769;DHT22;23049;54.304;8.826;2023-02-28T05:17:09;4.70;99.90
32769;DHT22;23049;54.304;8.826;2023-02-28T05:19:35;4.70;99.90
32769;DHT22;23049;54.304;8.826;2023-02-28T05:22:00;4.70;99.90
32769;DHT22;23049;54.304;8.826;2023-02-28T05:24:26;4.70;99.90
32769;DHT22;23049;54.304;8.826;2023-02-28T05:26:52;4.70;99.90
32769;DHT22;23049;54.304;8.826;2023-02-28T05:29:18;4.70;99.90
32769;DHT22;23049;54.304;8.826;2023-02-28T05:31:44;4.70;99.90
32769;DHT22;23049;54.304;8.826;2023-02-28T05:34:09;4.70;99.90
32769;DHT22;23049;54.304;8.826;2023-02-28T05:36:38;4.70;99.90
32769;DHT22;23049;54.304;8.826;2023-02-28T05:39:05;4.70;99.90
32769;DHT22;23049;54.304;8.826;2023-02-28T05:41:30;4.70;99.90
32769;DHT22;23049;54.304;8.826;2023-02-28T05:43:57;4.70;99.90
32769;DHT22;23049;54.304;8.826;2023-02-28T05:46:22;4.70;99.90
32769;DHT22;23049;54.304;8.826;2023-02-28T05:48:48;4.70;99.90
32769;DHT22;23049;54.304;8.826;2023-02-28T05:51:13;4.70;99.90
32769;DHT22;23049;54.304;8.826;2023-02-28T05:53:39;4.70;99.90
32769;DHT22;23049;54.304;8.826;2023-02-28T05:56:04;4.70;99.90
32769;DHT22;23049;54.304;8.826;2023-02-28T05:58:30;4.70;99.90
32769;DHT22;23049;54.304;8.826;2023-02-28T06:00:59;4.70;99.90
32769;DHT22;23049;54.304;8.826;2023-02-28T06:03:25;4.70;99.90
32769;DHT22;23049;54.304;8.826;2023-02-28T06:05:51;4.70;99.90
32769;DHT22;23049;54.304;8.826;2023-02-28T06:08:17;4.70;99.90
32769;DHT22;23049;54.304;8.826;2023-02-28T06:10:42;4.70;99.90
32769;DHT22;23049;54.304;8.826;2023-02-28T06:13:08;4.70;99.90
32769;DHT22;23049;54.304;8.826;2023-02-28T06:15:33;4.70;99.90
32769;DHT22;23049;54.304;8.826;2023-02-28T06:17:59;4.60;99.90
32769;DHT22;23049;54.304;8.826;2023-02-28T06:20:25;4.60;99.90
32769;DHT22;23049;54.304;8.826;2023-02-28T06:22:54;4.60;99.90
32769;DHT22;23049;54.304;8.826;2023-02-28T06:25:21;4.60;99.90
32769;DHT22;23049;54.304;8.826;2023-02-28T06:27:47;4.60;99.90
32769;DHT22;23049;54.304;8.826;2023-02-28T06:30:13;4.50;99.90
32769;DHT22;23049;54.304;8.826;2023-02-28T06:32:39;4.60;99.90
32769;DHT22;23049;54.304;8.826;2023-02-28T06:35:04;4.60;99.90
32769;DHT22;23049;54.304;8.826;2023-02-28T06:37:30;4.60;99.90
32769;DHT22;23049;54.304;8.826;2023-02-28T06:39:56;4.50;99.90
32769;DHT22;23049;54.304;8.826;2023-02-28T06:42:22;4.60;99.90
32769;DHT22;23049;54.304;8.826;2023-02-28T06:44:50;4.60;99.90
32769;DHT22;23049;54.304;8.826;2023-02-28T06:47:16;4.60;99.90
32769;DHT22;23049;54.304;8.826;2023-02-28T06:49:41;4.40;99.90
32769;DHT22;23049;54.304;8.826;2023-02-28T06:52:07;4.30;99.90
32769;DHT22;23049;54.304;8.826;2023-02-28T06:54:33;4.20;99.90
32769;DHT22;23049;54.304;8.826;2023-02-28T06:56:59;4.20;99.90
32769;DHT22;23049;54.304;8.826;2023-02-28T06:59:24;4.20;99.90
32769;DHT22;23049;54.304;8.826;2023-02-28T07:01:50;4.20;99.90
32769;DHT22;23049;54.304;8.826;2023-02-28T07:04:16;4.20;99.90
32769;DHT22;23049;54.304;8.826;2023-02-28T07:06:41;4.20;99.90
32769;DHT22;23049;54.304;8.826;2023-02-28T07:09:07;4.10;99.90
32769;DHT22;23049;54.304;8.826;2023-02-28T07:11:32;4.20;99.90
32769;DHT22;23049;54.304;8.826;2023-02-28T07:13:58;4.30;99.90
32769;DHT22;23049;54.304;8.826;2023-02-28T07:16:24;4.50;99.90
32769;DHT22;23049;54.304;8.826;2023-02-28T07:18:49;4.60;99.90
32769;DHT22;23049;54.304;8.826;2023-02-28T07:21:17;4.90;99.90
32769;DHT22;23049;54.304;8.826;2023-02-28T07:23:42;5.30;99.90
32769;DHT22;23049;54.304;8.826;2023-02-28T07:26:10;5.50;99.90
32769;DHT22;23049;54.304;8.826;2023-02-28T07:28:36;5.50;99.90
32769;DHT22;23049;54.304;8.826;2023-02-28T07:31:04;5.50;99.90
32769;DHT22;23049;54.304;8.826;2023-02-28T07:33:30;5.40;99.90
32769;DHT22;23049;54.304;8.826;2023-02-28T07:36:05;5.30;99.90
32769;DHT22;23049;54.304;8.826;2023-02-28T07:38:33;5.10;99.90
32769;DHT22;23049;54.304;8.826;2023-02-28T07:40:59;5.10;99.90
32769;DHT22;23049;54.304;8.826;2023-02-28T07:43:24;5.10;99.90
32769;DHT22;23049;54.304;8.826;2023-02-28T07:45:49;5.10;99.90
32769;DHT22;23049;54.304;8.826;2023-02-28T07:48:15;5.20;99.90
32769;DHT22;23049;54.304;8.826;2023-02-28T07:50:41;5.40;99.90
32769;DHT22;23049;54.304;8.826;2023-02-28T07:53:06;5.40;99.90
32769;DHT22;23049;54.304;8.826;2023-02-28T07:55:32;5.40;99.90
32769;DHT22;23049;54.304;8.826;2023-02-28T07:57:57;5.50;99.90
32769;DHT22;23049;54.304;8.826;2023-02-28T08:00:23;5.60;99.90
32769;DHT22;23049;54.304;8.826;2023-02-28T08:02:49;5.60;99.90
32769;DHT22;23049;54.304;8.826;2023-02-28T08:05:14;5.60;99.90
32769;DHT22;23049;54.304;8.826;2023-02-28T08:07:40;5.60;99.90
32769;DHT22;23049;54.304;8.826;2023-02-28T08:10:05;5.50;99.90
32769;DHT22;23049;54.304;8.826;2023-02-28T08:12:31;5.50;99.90
32769;DHT22;23049;54.304;8.826;2023-02-28T08:14:57;5.50;99.90
32769;DHT22;23049;54.304;8.826;2023-02-28T08:17:22;5.50;99.90
32769;DHT22;23049;54.304;8.826;2023-02-28T08:19:48;5.40;99.90
32769;DHT22;23049;54.304;8.826;2023-02-28T08:22:14;5.50;99.90
32769;DHT22;23049;54.304;8.826;2023-02-28T08:24:40;5.50;99.90
32769;DHT22;23049;54.304;8.826;2023-02-28T08:27:06;5.50;99.90
32769;DHT22;23049;54.304;8.826;2023-02-28T08:29:32;5.50;99.90
32769;DHT22;23049;54.304;8.826;2023-02-28T08:31:57;5.50;99.90
32769;DHT22;23049;54.304;8.826;2023-02-28T08:34:24;5.50;99.90
32769;DHT22;23049;54.304;8.826;2023-02-28T08:36:49;5.50;99.90
32769;DHT22;23049;54.304;8.826;2023-02-28T08:39:15;5.50;99.90
32769;DHT22;23049;54.304;8.826;2023-02-28T08:41:42;5.60;99.90
32769;DHT22;23049;54.304;8.826;2023-02-28T08:44:09;5.70;99.90
32769;DHT22;23049;54.304;8.826;2023-02-28T08:46:35;5.70;99.90
32769;DHT22;23049;54.304;8.826;2023-02-28T08:49:01;5.70;99.90
32769;DHT22;23049;54.304;8.826;2023-02-28T08:51:27;5.80;99.90
32769;DHT22;23049;54.304;8.826;2023-02-28T08:53:54;5.90;99.90
32769;DHT22;23049;54.304;8.826;2023-02-28T08:56:20;6.00;99.90
32769;DHT22;23049;54.304;8.826;2023-02-28T08:58:46;6.00;99.90
32769;DHT22;23049;54.304;8.826;2023-02-28T09:01:16;6.00;99.90
32769;DHT22;23049;54.304;8.826;2023-02-28T09:03:42;6.00;99.90
32769;DHT22;23049;54.304;8.826;2023-02-28T09:06:08;6.20;99.90
32769;DHT22;23049;54.304;8.826;2023-02-28T09:08:34;6.20;99.90
32769;DHT22;23049;54.304;8.826;2023-02-28T09:11:00;6.30;99.90
32769;DHT22;23049;54.304;8.826;2023-02-28T09:13:26;6.30;99.90
32769;DHT22;23049;54.304;8.826;2023-02-28T09:15:52;6.30;99.90
32769;DHT22;23049;54.304;8.826;2023-02-28T09:18:17;6.50;99.90
32769;DHT22;23049;54.304;8.826;2023-02-28T09:20:43;6.70;99.90
32769;DHT22;23049;54.304;8.826;2023-02-28T09:23:09;6.80;99.90
32769;DHT22;23049;54.304;8.826;2023-02-28T09:25:35;7.00;99.90
32769;DHT22;23049;54.304;8.826;2023-02-28T09:28:01;7.10;99.90
32769;DHT22;23049;54.304;8.826;2023-02-28T09:30:26;7.20;99.90
32769;DHT22;23049;54.304;8.826;2023-02-28T09:32:52;7.30;99.90
32769;DHT22;23049;54.304;8.826;2023-02-28T09:35:22;7.40;99.90
32769;DHT22;23049;54.304;8.826;2023-02-28T09:37:48;7.50;99.90
32769;DHT22;23049;54.304;8.826;2023-02-28T09:40:14;7.70;99.90
32769;DHT22;23049;54.304;8.826;2023-02-28T09:42:44;7.80;99.90
32769;DHT22;23049;54.304;8.826;2023-02-28T09:45:22;7.90;99.90
32769;DHT22;23049;54.304;8.826;2023-02-28T09:47:48;8.00;99.90
32769;DHT22;23049;54.304;8.826;2023-02-28T09:50:22;8.00;99.90
32769;DHT22;23049;54.304;8.826;2023-02-28T09:52:49;8.10;99.90
32769;DHT22;23049;54.304;8.826;2023-02-28T09:55:20;8.10;99.90
32769;DHT22;23049;54.304;8.826;2023-02-28T09:57:47;8.10;99.90
32769;DHT22;23049;54.304;8.826;2023-02-28T10:00:23;8.20;99.90
32769;DHT22;23049;54.304;8.826;2023-02-28T10:05:38;8.00;99.90
32769;DHT22;23049;54.304;8.826;2023-02-28T10:10:36;8.10;99.90
32769;DHT22;23049;54.304;8.826;2023-02-28T10:13:04;8.00;99.90
32769;DHT22;23049;54.304;8.826;2023-02-28T10:15:31;8.00;99.90
32769;DHT22;23049;54.304;8.826;2023-02-28T10:18:03;8.00;99.90
32769;DHT22;23049;54.304;8.826;2023-02-28T10:20:29;8.00;99.90
32769;DHT22;23049;54.304;8.826;2023-02-28T10:23:21;8.00;99.90
32769;DHT22;23049;54.304;8.826;2023-02-28T10:26:04;8.00;99.90
32769;DHT22;23049;54.304;8.826;2023-02-28T10:28:33;8.00;99.90
32769;DHT22;23049;54.304;8.826;2023-02-28T10:30:59;8.00;99.90
32769;DHT22;23049;54.304;8.826;2023-02-28T10:33:26;8.10;99.90
32769;DHT22;23049;54.304;8.826;2023-02-28T10:35:53;8.30;99.90
32769;DHT22;23049;54.304;8.826;2023-02-28T10:38:23;8.20;99.90
32769;DHT22;23049;54.304;8.826;2023-02-28T10:40:49;8.20;99.90
32769;DHT22;23049;54.304;8.826;2023-02-28T10:45:51;8.20;99.90
32769;DHT22;23049;54.304;8.826;2023-02-28T10:58:22;8.30;99.90
32769;DHT22;23049;54.304;8.826;2023-02-28T11:00:48;8.40;99.90
32769;DHT22;23049;54.304;8.826;2023-02-28T11:05:49;8.40;99.90
32769;DHT22;23049;54.304;8.826;2023-02-28T11:08:17;8.40;99.90
32769;DHT22;23049;54.304;8.826;2023-02-28T11:10:46;8.50;99.90
32769;DHT22;23049;54.304;8.826;2023-02-28T11:13:19;8.60;99.90
32769;DHT22;23049;54.304;8.826;2023-02-28T11:15:58;8.60;99.90
32769;DHT22;23049;54.304;8.826;2023-02-28T11:18:35;8.70;99.90
32769;DHT22;23049;54.304;8.826;2023-02-28T11:21:03;8.70;99.90
32769;DHT22;23049;54.304;8.826;2023-02-28T11:23:30;8.90;99.90
32769;DHT22;23049;54.304;8.826;2023-02-28T11:25:58;8.90;99.90
32769;DHT22;23049;54.304;8.826;2023-02-28T11:28:28;9.00;99.90
32769;DHT22;23049;54.304;8.826;2023-02-28T11:31:02;9.00;99.90
32769;DHT22;23049;54.304;8.826;2023-02-28T11:33:30;9.00;99.90
32769;DHT22;23049;54.304;8.826;2023-02-28T11:36:04;9.10;99.90
32769;DHT22;23049;54.304;8.826;2023-02-28T11:38:34;9.10;99.90
32769;DHT22;23049;54.304;8.826;2023-02-28T11:46:52;9.40;99.90
32769;DHT22;23049;54.304;8.826;2023-02-28T11:52:06;9.20;99.90
32769;DHT22;23049;54.304;8.826;2023-02-28T11:54:57;9.20;99.90
32769;DHT22;23049;54.304;8.826;2023-02-28T12:00:14;9.40;99.90
32769;DHT22;23049;54.304;8.826;2023-02-28T12:02:51;9.40;99.90
32769;DHT22;23049;54.304;8.826;2023-02-28T12:05:23;9.40;99.90
32769;DHT22;23049;54.304;8.826;2023-02-28T12:10:21;9.50;99.90
32769;DHT22;23049;54.304;8.826;2023-02-28T12:20:57;9.50;99.90
32769;DHT22;23049;54.304;8.826;2023-02-28T12:28:19;9.40;99.90
32769;DHT22;23049;54.304;8.826;2023-02-28T12:30:49;9.20;99.90
32769;DHT22;23049;54.304;8.826;2023-02-28T12:33:17;9.30;99.90
32769;DHT22;23049;54.304;8.826;2023-02-28T12:35:51;9.30;99.90
32769;DHT22;23049;54.304;8.826;2023-02-28T12:38:39;9.30;99.90
32769;DHT22;23049;54.304;8.826;2023-02-28T12:41:04;9.30;99.90
32769;DHT22;23049;54.304;8.826;2023-02-28T12:43:34;9.30;99.90
32769;DHT22;23049;54.304;8.826;2023-02-28T12:46:22;9.40;99.90
32769;DHT22;23049;54.304;8.826;2023-02-28T12:48:58;9.40;99.90
32769;DHT22;23049;54.304;8.826;2023-02-28T12:51:25;9.50;99.90
32769;DHT22;23049;54.304;8.826;2023-02-28T12:54:12;9.40;99.90
32769;DHT22;23049;54.304;8.826;2023-02-28T13:10:41;9.40;99.90
32769;DHT22;23049;54.304;8.826;2023-02-28T13:13:12;9.30;99.90
32769;DHT22;23049;54.304;8.826;2023-02-28T13:15:38;9.30;99.90
32769;DHT22;23049;54.304;8.826;2023-02-28T13:18:20;9.40;99.90
32769;DHT22;23049;54.304;8.826;2023-02-28T13:20:51;9.40;99.90
32769;DHT22;23049;54.304;8.826;2023-02-28T13:23:37;9.50;99.90
32769;DHT22;23049;54.304;8.826;2023-02-28T13:26:03;9.50;99.90
32769;DHT22;23049;54.304;8.826;2023-02-28T13:31:21;9.40;99.90
32769;DHT22;23049;54.304;8.826;2023-02-28T13:38:43;9.20;99.90
32769;DHT22;23049;54.304;8.826;2023-02-28T13:46:32;9.20;99.90
32769;DHT22;23049;54.304;8.826;2023-02-28T13:51:44;9.20;99.90
32769;DHT22;23049;54.304;8.826;2023-02-28T13:54:16;9.20;99.90
32769;DHT22;23049;54.304;8.826;2023-02-28T13:56:45;9.30;99.90
32769;DHT22;23049;54.304;8.826;2023-02-28T13:59:16;9.30;99.90
32769;DHT22;23049;54.304;8.826;2023-02-28T14:06:53;9.20;99.90
32769;DHT22;23049;54.304;8.826;2023-02-28T14:09:30;9.10;99.90
32769;DHT22;23049;54.304;8.826;2023-02-28T14:11:57;9.10;99.90
32769;DHT22;23049;54.304;8.826;2023-02-28T14:17:04;9.00;99.90
32769;DHT22;23049;54.304;8.826;2023-02-28T14:19:31;9.00;99.90
32769;DHT22;23049;54.304;8.826;2023-02-28T14:27:21;8.90;99.90
32769;DHT22;23049;54.304;8.826;2023-02-28T14:37:37;9.10;99.90
32769;DHT22;23049;54.304;8.826;2023-02-28T14:40:04;9.10;99.90
32769;DHT22;23049;54.304;8.826;2023-02-28T14:42:33;9.10;99.90
32769;DHT22;23049;54.304;8.826;2023-02-28T14:44:59;9.10;99.90
32769;DHT22;23049;54.304;8.826;2023-02-28T14:47:27;9.10;99.90
32769;DHT22;23049;54.304;8.826;2023-02-28T14:49:53;9.10;99.90
32769;DHT22;23049;54.304;8.826;2023-02-28T14:54:44;9.10;99.90
32769;DHT22;23049;54.304;8.826;2023-02-28T14:57:24;9.10;99.90
32769;DHT22;23049;54.304;8.826;2023-02-28T15:02:30;9.00;99.90
32769;DHT22;23049;54.304;8.826;2023-02-28T15:04:57;9.10;99.90
32769;DHT22;23049;54.304;8.826;2023-02-28T15:07:23;9.10;99.90
32769;DHT22;23049;54.304;8.826;2023-02-28T15:12:34;9.10;99.90
32769;DHT22;23049;54.304;8.826;2023-02-28T15:15:02;9.10;99.90
32769;DHT22;23049;54.304;8.826;2023-02-28T15:17:27;9.20;99.90
32769;DHT22;23049;54.304;8.826;2023-02-28T15:19:53;9.10;99.90
32769;DHT22;23049;54.304;8.826;2023-02-28T15:22:22;9.00;99.90
32769;DHT22;23049;54.304;8.826;2023-02-28T15:24:53;9.00;99.90
32769;DHT22;23049;54.304;8.826;2023-02-28T15:27:20;9.00;99.90
32769;DHT22;23049;54.304;8.826;2023-02-28T15:29:48;8.90;99.90
32769;DHT22;23049;54.304;8.826;2023-02-28T15:32:35;8.50;99.90
32769;DHT22;23049;54.304;8.826;2023-02-28T15:37:52;8.20;99.90
32769;DHT22;23049;54.304;8.826;2023-02-28T15:40:37;7.90;99.90
32769;DHT22;23049;54.304;8.826;2023-02-28T15:43:17;7.90;99.90
32769;DHT22;23049;54.304;8.826;2023-02-28T15:45:49;7.90;99.90
32769;DHT22;23049;54.304;8.826;2023-02-28T15:48:25;8.10;99.90
32769;DHT22;23049;54.304;8.826;2023-02-28T15:50:52;7.90;99.90
32769;DHT22;23049;54.304;8.826;2023-02-28T15:53:39;7.80;99.90
32769;DHT22;23049;54.304;8.826;2023-02-28T15:56:25;7.70;99.90
32769;DHT22;23049;54.304;8.826;2023-02-28T15:59:26;7.60;99.90
32769;DHT22;23049;54.304;8.826;2023-02-28T16:01:43;7.50;99.90
32769;DHT22;23049;54.304;8.826;2023-02-28T16:04:14;7.50;99.90
32769;DHT22;23049;54.304;8.826;2023-02-28T16:06:43;7.40;99.90
32769;DHT22;23049;54.304;8.826;2023-02-28T16:09:11;7.30;99.90
32769;DHT22;23049;54.304;8.826;2023-02-28T16:11:38;7.20;99.90
32769;DHT22;23049;54.304;8.826;2023-02-28T16:14:04;7.00;99.90
32769;DHT22;23049;54.304;8.826;2023-02-28T16:16:30;6.90;99.90
32769;DHT22;23049;54.304;8.826;2023-02-28T16:18:56;6.90;99.90
32769;DHT22;23049;54.304;8.826;2023-02-28T16:21:21;6.70;99.90
32769;DHT22;23049;54.304;8.826;2023-02-28T16:23:47;6.70;99.90
32769;DHT22;23049;54.304;8.826;2023-02-28T16:26:20;6.60;99.90
32769;DHT22;23049;54.304;8.826;2023-02-28T16:28:46;6.50;99.90
32769;DHT22;23049;54.304;8.826;2023-02-28T16:31:12;6.50;99.90
32769;DHT22;23049;54.304;8.826;2023-02-28T16:33:42;6.50;99.90
32769;DHT22;23049;54.304;8.826;2023-02-28T16:36:09;6.40;99.90
32769;DHT22;23049;54.304;8.826;2023-02-28T16:38:36;6.20;99.90
32769;DHT22;23049;54.304;8.826;2023-02-28T16:41:01;6.20;99.90
32769;DHT22;23049;54.304;8.826;2023-02-28T16:43:27;6.00;99.90
32769;DHT22;23049;54.304;8.826;2023-02-28T16:45:56;5.90;99.90
32769;DHT22;23049;54.304;8.826;2023-02-28T16:48:23;5.80;99.90
32769;DHT22;23049;54.304;8.826;2023-02-28T16:50:48;5.70;99.90
32769;DHT22;23049;54.304;8.826;2023-02-28T16:53:14;5.60;99.90
32769;DHT22;23049;54.304;8.826;2023-02-28T16:55:40;5.50;99.90
32769;DHT22;23049;54.304;8.826;2023-02-28T16:58:05;5.40;99.90
32769;DHT22;23049;54.304;8.826;2023-02-28T17:00:31;5.30;99.90
32769;DHT22;23049;54.304;8.826;2023-02-28T17:02:57;5.20;99.90
32769;DHT22;23049;54.304;8.826;2023-02-28T17:05:24;5.10;99.90
32769;DHT22;23049;54.304;8.826;2023-02-28T17:07:51;5.30;99.90
32769;DHT22;23049;54.304;8.826;2023-02-28T17:10:22;5.50;99.90
32769;DHT22;23049;54.304;8.826;2023-02-28T17:12:47;5.50;99.90
32769;DHT22;23049;54.304;8.826;2023-02-28T17:15:14;5.60;99.90
32769;DHT22;23049;54.304;8.826;2023-02-28T17:17:40;5.50;99.90
32769;DHT22;23049;54.304;8.826;2023-02-28T17:20:06;5.50;99.90
32769;DHT22;23049;54.304;8.826;2023-02-28T17:22:32;5.30;99.90
32769;DHT22;23049;54.304;8.826;2023-02-28T17:24:58;5.20;99.90
32769;DHT22;23049;54.304;8.826;2023-02-28T17:27:24;5.20;99.90
32769;DHT22;23049;54.304;8.826;2023-02-28T17:29:50;5.20;99.90
32769;DHT22;23049;54.304;8.826;2023-02-28T17:32:15;5.20;99.90
32769;DHT22;23049;54.304;8.826;2023-02-28T17:34:41;5.00;99.90
32769;DHT22;23049;54.304;8.826;2023-02-28T17:37:07;4.90;99.90
32769;DHT22;23049;54.304;8.826;2023-02-28T17:39:33;4.90;99.90
32769;DHT22;23049;54.304;8.826;2023-02-28T17:41:58;4.90;99.90
32769;DHT22;23049;54.304;8.826;2023-02-28T17:44:24;4.90;99.90
32769;DHT22;23049;54.304;8.826;2023-02-28T17:46:50;4.80;99.90
32769;DHT22;23049;54.304;8.826;2023-02-28T17:49:16;4.60;99.90
32769;DHT22;23049;54.304;8.826;2023-02-28T17:51:42;4.60;99.90
32769;DHT22;23049;54.304;8.826;2023-02-28T17:54:07;4.50;99.90
32769;DHT22;23049;54.304;8.826;2023-02-28T17:56:33;4.50;99.90
32769;DHT22;23049;54.304;8.826;2023-02-28T17:58:58;4.50;99.90
32769;DHT22;23049;54.304;8.826;2023-02-28T18:01:24;4.50;99.90
32769;DHT22;23049;54.304;8.826;2023-02-28T18:03:53;4.50;99.90
32769;DHT22;23049;54.304;8.826;2023-02-28T18:06:20;4.50;99.90
32769;DHT22;23049;54.304;8.826;2023-02-28T18:08:46;4.40;99.90
32769;DHT22;23049;54.304;8.826;2023-02-28T18:11:12;4.50;99.90
32769;DHT22;23049;54.304;8.826;2023-02-28T18:13:46;4.50;99.90